Time;durP1;ratioP1;P1;durP2;ratioP2;P2;SDS_P1;SDS_P2;PMS_P1;PMS_P2;Temp;Humidity;BMP_temperature;BMP_pressure;BME280_temperature;BME280_humidity;BME280_pressure;Samples;Min_cycle;Max_cycle;Signal;HPM_P1;HPM_P2
2023/12/14 00:02:15;;;;;;;93.43;88.40;;;9.00;99.90;;;;;;5034310;28;20410;-72
2023/12/14 00:04:41;;;;;;;115.63;109.40;;;9.00;99.90;;;;;;5034075;28;20037;-71
2023/12/14 00:07:07;;;;;;;115.60;109.57;;;9.10;99.90;;;;;;5033693;28;20029;-72
2023/12/14 00:09:33;;;;;;;99.75;94.47;;;9.10;99.90;;;;;;5034032;28;20397;-72
2023/12/14 00:11:59;;;;;;;153.10;145.25;;;9.10;99.90;;;;;;5034830;28;20025;-72
2023/12/14 00:14:25;;;;;;;153.77;145.70;;;9.20;99.90;;;;;;5034204;28;20029;-72
2023/12/14 00:16:52;;;;;;;141.30;133.65;;;9.20;99.90;;;;;;5034098;28;20049;-72
2023/12/14 00:19:18;;;;;;;129.10;122.13;;;9.20;99.90;;;;;;5032981;28;20037;-72
2023/12/14 00:21:44;;;;;;;131.55;124.55;;;9.20;99.90;;;;;;5034413;28;20044;-72
2023/12/14 00:24:10;;;;;;;161.48;152.73;;;9.20;99.90;;;;;;5034789;28;20040;-72
2023/12/14 00:26:37;;;;;;;112.38;106.25;;;9.10;99.90;;;;;;5034440;28;20040;-72
2023/12/14 00:29:03;;;;;;;86.25;81.75;;;9.20;99.90;;;;;;5034475;28;20021;-72
2023/12/14 00:31:29;;;;;;;165.50;156.90;;;9.10;99.90;;;;;;5031097;28;20030;-72
2023/12/14 00:33:56;;;;;;;161.98;153.70;;;9.10;99.90;;;;;;5017214;28;20053;-72
2023/12/14 00:36:22;;;;;;;160.00;151.70;;;9.10;99.90;;;;;;5023857;28;20041;-72
2023/12/14 00:38:48;;;;;;;173.48;164.27;;;9.20;99.90;;;;;;5034473;28;20037;-72
2023/12/14 00:41:14;;;;;;;182.70;173.32;;;9.10;99.90;;;;;;5033496;28;20037;-72
2023/12/14 00:43:40;;;;;;;134.82;127.63;;;9.20;99.90;;;;;;5034012;28;20125;-72
2023/12/14 00:46:06;;;;;;;97.22;91.85;;;9.20;99.90;;;;;;5025747;28;20033;-73
2023/12/14 00:48:32;;;;;;;161.52;152.90;;;9.20;99.90;;;;;;5013589;28;20030;-72
2023/12/14 00:50:58;;;;;;;140.77;133.27;;;9.20;99.90;;;;;;5019354;28;20033;-72
2023/12/14 00:53:24;;;;;;;52.05;49.28;;;9.20;99.90;;;;;;5034290;28;20035;-72
2023/12/14 00:55:51;;;;;;;53.63;50.35;;;9.10;99.90;;;;;;5032808;28;20025;-72
2023/12/14 00:58:17;;;;;;;86.55;82.00;;;9.10;99.90;;;;;;5033776;28;20034;-72
2023/12/14 01:00:43;;;;;;;77.07;73.03;;;9.10;99.90;;;;;;5033034;28;20025;-72
2023/12/14 01:03:09;;;;;;;50.17;47.40;;;9.10;99.90;;;;;;5033877;28;20030;-72
2023/12/14 01:05:35;;;;;;;62.42;59.00;;;9.10;99.90;;;;;;5033666;28;20033;-72
2023/12/14 01:08:01;;;;;;;57.70;54.38;;;9.20;99.90;;;;;;5033953;28;20034;-66
2023/12/14 01:10:27;;;;;;;80.22;75.50;;;9.10;99.90;;;;;;5032731;28;20034;-66
2023/12/14 01:12:53;;;;;;;103.32;97.95;;;9.10;99.90;;;;;;5033852;28;20033;-66
2023/12/14 01:15:19;;;;;;;90.75;85.97;;;9.10;99.90;;;;;;5033093;28;20028;-66
2023/12/14 01:17:45;;;;;;;70.53;66.50;;;9.20;99.90;;;;;;5033762;28;20060;-66
2023/12/14 01:20:11;;;;;;;73.22;69.18;;;9.20;99.90;;;;;;5033077;28;20029;-66
2023/12/14 01:22:38;;;;;;;64.43;60.92;;;9.20;99.90;;;;;;5020509;28;20030;-66
2023/12/14 01:25:04;;;;;;;79.07;74.78;;;9.10;99.90;;;;;;5013587;28;20058;-66
2023/12/14 01:27:30;;;;;;;87.32;82.40;;;9.10;99.90;;;;;;5032165;28;20037;-66
2023/12/14 01:29:56;;;;;;;91.85;86.78;;;9.10;99.90;;;;;;5025287;28;20391;-66
2023/12/14 01:32:22;;;;;;;90.22;85.38;;;9.10;99.90;;;;;;5030934;28;20053;-66
2023/12/14 01:34:48;;;;;;;66.07;62.08;;;9.00;99.90;;;;;;5033459;28;20022;-66
2023/12/14 01:37:14;;;;;;;53.60;50.50;;;8.90;99.90;;;;;;5033078;28;20044;-66
2023/12/14 01:39:40;;;;;;;57.40;53.90;;;9.00;99.90;;;;;;5033073;28;20077;-66
2023/12/14 01:42:07;;;;;;;49.25;46.40;;;9.00;99.90;;;;;;5032949;28;20038;-66
2023/12/14 01:44:33;;;;;;;50.63;47.25;;;9.00;99.90;;;;;;5033175;28;20033;-66
2023/12/14 01:46:59;;;;;;;50.03;47.03;;;8.90;99.90;;;;;;5030149;28;20383;-66
2023/12/14 01:49:25;;;;;;;61.25;57.85;;;8.90;99.90;;;;;;5032895;28;20029;-66
2023/12/14 01:51:51;;;;;;;81.22;76.60;;;9.00;99.90;;;;;;5032755;28;20040;-66
2023/12/14 01:54:17;;;;;;;64.13;59.75;;;9.00;99.90;;;;;;5032647;28;20036;-66
2023/12/14 01:56:43;;;;;;;93.80;88.53;;;8.90;99.90;;;;;;5032893;28;20033;-66
2023/12/14 01:59:09;;;;;;;50.75;47.75;;;8.90;99.90;;;;;;5032738;28;20040;-66
2023/12/14 02:01:41;;;;;;;60.22;56.75;;;8.90;99.90;;;;;;5020361;28;20413;-66
2023/12/14 02:04:07;;;;;;;53.72;50.42;;;8.90;99.90;;;;;;5013158;28;20045;-66
2023/12/14 02:06:33;;;;;;;75.05;71.05;;;8.90;99.90;;;;;;5012970;28;20038;-66
2023/12/14 02:08:59;;;;;;;49.55;46.45;;;8.80;99.90;;;;;;5020998;28;20041;-66
2023/12/14 02:11:25;;;;;;;48.92;45.80;;;8.70;99.90;;;;;;5031706;28;20021;-66
2023/12/14 02:13:51;;;;;;;62.22;58.28;;;8.80;99.90;;;;;;5032952;28;20045;-66
2023/12/14 02:16:17;;;;;;;70.25;66.65;;;8.80;99.90;;;;;;5031758;28;20060;-71
2023/12/14 02:18:44;;;;;;;58.17;54.88;;;8.90;99.90;;;;;;5031614;28;20034;-71
2023/12/14 02:21:10;;;;;;;71.45;67.60;;;8.90;99.90;;;;;;5029019;28;20049;-72
2023/12/14 02:23:45;;;;;;;98.75;93.13;;;8.90;99.90;;;;;;5012315;28;20030;-71
2023/12/14 02:26:14;;;;;;;74.35;69.93;;;8.80;99.90;;;;;;5019987;28;20485;-71
2023/12/14 02:28:41;;;;;;;87.28;82.32;;;8.90;99.90;;;;;;5021174;28;20074;-72
2023/12/14 02:31:07;;;;;;;73.97;70.05;;;8.90;99.90;;;;;;5016533;28;20413;-72
2023/12/14 02:33:33;;;;;;;98.78;93.25;;;8.90;99.90;;;;;;5031206;28;20056;-71
2023/12/14 02:35:59;;;;;;;94.38;89.10;;;8.90;99.90;;;;;;5031576;28;20037;-71
2023/12/14 02:38:26;;;;;;;94.32;89.35;;;8.90;99.90;;;;;;5028966;28;20041;-71
2023/12/14 02:40:52;;;;;;;82.90;78.13;;;9.00;99.90;;;;;;5031773;28;20060;-71
2023/12/14 02:43:23;;;;;;;62.72;58.83;;;8.90;99.90;;;;;;5032552;28;20037;-72
2023/12/14 02:45:49;;;;;;;49.92;46.97;;;8.90;99.90;;;;;;5025095;28;20034;-71
2023/12/14 02:48:15;;;;;;;48.88;45.97;;;8.90;99.90;;;;;;5018273;28;20025;-71
2023/12/14 02:50:42;;;;;;;66.85;63.20;;;9.00;99.90;;;;;;5028864;28;20025;-71
2023/12/14 02:53:08;;;;;;;56.95;54.08;;;9.00;99.90;;;;;;5031706;28;20026;-71
2023/12/14 02:55:34;;;;;;;48.45;45.60;;;9.00;99.90;;;;;;5013746;28;20030;-71
2023/12/14 02:58:00;;;;;;;71.25;67.40;;;9.00;99.90;;;;;;5031835;28;20580;-72
2023/12/14 03:00:26;;;;;;;69.95;66.05;;;8.90;99.90;;;;;;5031315;28;20081;-71
2023/12/14 03:02:52;;;;;;;50.70;47.88;;;9.00;99.90;;;;;;5031751;28;20022;-72
2023/12/14 03:05:18;;;;;;;47.03;44.28;;;9.00;99.90;;;;;;5030382;28;20040;-72
2023/12/14 03:07:44;;;;;;;57.15;53.83;;;9.00;99.90;;;;;;5030404;28;20026;-72
2023/12/14 03:10:10;;;;;;;54.10;51.10;;;9.00;99.90;;;;;;5012256;28;20050;-72
2023/12/14 03:12:36;;;;;;;69.78;65.65;;;8.90;99.90;;;;;;5030838;28;20033;-72
2023/12/14 03:15:03;;;;;;;58.05;54.15;;;8.90;99.90;;;;;;5030397;28;20040;-70
2023/12/14 03:17:29;;;;;;;61.28;57.80;;;8.90;99.90;;;;;;5031200;28;20520;-71
2023/12/14 03:19:55;;;;;;;62.70;59.08;;;8.80;99.90;;;;;;5012421;28;20041;-71
2023/12/14 03:22:21;;;;;;;82.82;78.32;;;8.80;99.90;;;;;;5029103;28;20045;-71
2023/12/14 03:24:47;;;;;;;57.15;53.60;;;8.90;99.90;;;;;;5031069;28;20045;-66
2023/12/14 03:27:13;;;;;;;61.70;58.15;;;8.90;99.90;;;;;;5031548;28;20042;-66
2023/12/14 03:29:39;;;;;;;87.43;82.22;;;8.90;99.90;;;;;;5031106;28;20383;-66
2023/12/14 03:32:05;;;;;;;70.45;66.25;;;9.00;99.90;;;;;;5030920;28;20049;-66
2023/12/14 03:34:32;;;;;;;59.13;55.85;;;9.00;99.90;;;;;;5031991;28;20041;-66
2023/12/14 03:36:58;;;;;;;81.40;76.82;;;9.10;99.90;;;;;;5031150;28;20068;-66
2023/12/14 03:39:24;;;;;;;76.88;72.68;;;9.00;99.90;;;;;;5031401;28;20045;-66
2023/12/14 03:41:50;;;;;;;55.90;52.70;;;8.90;99.90;;;;;;5031142;28;20041;-66
2023/12/14 03:44:16;;;;;;;89.78;85.07;;;8.90;99.90;;;;;;5031801;28;20029;-66
2023/12/14 03:46:42;;;;;;;75.80;71.30;;;9.00;99.90;;;;;;5018447;28;20485;-66
2023/12/14 03:49:08;;;;;;;73.22;69.22;;;9.10;99.90;;;;;;5024131;28;20030;-66
2023/12/14 03:51:34;;;;;;;63.70;60.05;;;9.00;99.90;;;;;;5034673;28;20049;-66
2023/12/14 03:54:01;;;;;;;78.57;74.38;;;9.00;99.90;;;;;;5035508;28;20025;-66
2023/12/14 03:56:27;;;;;;;75.65;71.65;;;9.00;99.90;;;;;;5034851;28;20042;-66
2023/12/14 03:58:53;;;;;;;62.47;58.92;;;9.00;99.90;;;;;;5034906;28;20049;-66
2023/12/14 04:01:19;;;;;;;72.10;68.10;;;9.00;99.90;;;;;;5034660;28;20033;-66
2023/12/14 04:03:45;;;;;;;79.13;74.80;;;9.10;99.90;;;;;;5035400;28;20029;-66
2023/12/14 04:06:12;;;;;;;52.85;49.65;;;9.00;99.90;;;;;;5034487;28;20048;-66
2023/12/14 04:08:39;;;;;;;60.25;56.85;;;8.90;99.90;;;;;;5034044;28;20046;-66
2023/12/14 04:11:05;;;;;;;91.10;86.07;;;8.90;99.90;;;;;;5034672;28;20045;-66
2023/12/14 04:13:31;;;;;;;88.43;83.80;;;8.90;99.90;;;;;;5035082;28;20037;-66
2023/12/14 04:15:57;;;;;;;152.90;145.15;;;8.90;99.90;;;;;;5034219;28;20041;-66
2023/12/14 04:18:23;;;;;;;67.18;63.58;;;8.80;99.90;;;;;;5034198;28;20054;-66
2023/12/14 04:20:49;;;;;;;145.77;138.45;;;8.80;99.90;;;;;;5032691;28;20022;-66
2023/12/14 04:23:16;;;;;;;160.50;152.25;;;8.80;99.90;;;;;;5015203;28;20042;-66
2023/12/14 04:25:42;;;;;;;166.95;158.57;;;8.80;99.90;;;;;;5019198;28;20040;-66
2023/12/14 04:28:08;;;;;;;155.30;146.68;;;8.90;99.90;;;;;;5034122;28;20034;-66
2023/12/14 04:30:34;;;;;;;137.25;130.05;;;8.90;99.90;;;;;;5033752;28;20048;-66
2023/12/14 04:33:00;;;;;;;96.95;91.78;;;8.90;99.90;;;;;;5034572;28;20064;-66
2023/12/14 04:35:26;;;;;;;144.25;136.85;;;8.90;99.90;;;;;;5033946;28;20390;-66
2023/12/14 04:37:52;;;;;;;131.30;124.68;;;8.90;99.90;;;;;;5034152;28;20045;-66
2023/12/14 04:40:18;;;;;;;125.07;118.78;;;8.90;99.90;;;;;;5034152;28;20397;-66
2023/12/14 04:42:44;;;;;;;168.23;159.50;;;9.00;99.90;;;;;;5034041;28;20395;-71
2023/12/14 04:45:11;;;;;;;121.88;115.45;;;9.00;99.90;;;;;;5033252;28;20029;-71
2023/12/14 04:47:37;;;;;;;124.10;117.70;;;9.00;99.90;;;;;;5013464;28;20052;-71
2023/12/14 04:50:03;;;;;;;135.60;128.68;;;9.00;99.90;;;;;;5032491;28;20041;-71
2023/12/14 04:52:30;;;;;;;138.80;131.85;;;9.00;99.90;;;;;;5032839;28;20033;-71
2023/12/14 04:54:56;;;;;;;87.93;83.30;;;9.00;99.90;;;;;;5034320;28;20033;-72
2023/12/14 04:57:22;;;;;;;68.22;64.68;;;9.00;99.90;;;;;;5015594;28;20497;-71
2023/12/14 04:59:48;;;;;;;80.90;76.57;;;9.00;99.90;;;;;;5014245;28;20057;-71
2023/12/14 05:02:14;;;;;;;64.45;60.85;;;9.10;99.90;;;;;;5029569;28;20046;-71
2023/12/14 05:04:40;;;;;;;68.45;64.55;;;9.00;99.90;;;;;;5033858;28;20045;-71
2023/12/14 05:07:06;;;;;;;61.35;57.95;;;9.00;99.90;;;;;;5033297;28;20045;-71
2023/12/14 05:09:33;;;;;;;65.32;61.95;;;9.00;99.90;;;;;;5034046;28;20390;-71
2023/12/14 05:11:59;;;;;;;65.80;62.15;;;9.00;99.90;;;;;;5032221;28;20037;-71
2023/12/14 05:14:26;;;;;;;57.60;54.50;;;9.10;99.90;;;;;;5020458;28;20530;-71
2023/12/14 05:16:52;;;;;;;57.20;53.95;;;9.00;99.90;;;;;;5030157;28;20041;-70
2023/12/14 05:19:19;;;;;;;54.28;50.97;;;9.00;99.90;;;;;;5033343;28;20046;-72
2023/12/14 05:21:45;;;;;;;58.20;54.80;;;8.90;99.90;;;;;;5033156;28;20030;-72
2023/12/14 05:24:11;;;;;;;52.97;49.70;;;8.90;99.90;;;;;;5022126;28;20508;-71
2023/12/14 05:26:37;;;;;;;55.85;52.45;;;8.70;99.90;;;;;;5033184;28;20034;-72
2023/12/14 05:29:03;;;;;;;53.00;50.10;;;8.70;99.90;;;;;;5033526;28;20036;-71
2023/12/14 05:31:29;;;;;;;50.05;47.00;;;8.70;99.90;;;;;;5031662;28;20045;-72
2023/12/14 05:33:55;;;;;;;49.95;47.08;;;8.70;99.90;;;;;;5031750;28;20049;-72
2023/12/14 05:36:21;;;;;;;57.28;54.17;;;8.60;99.90;;;;;;5032906;28;20053;-72
2023/12/14 05:38:47;;;;;;;56.55;52.97;;;8.60;99.90;;;;;;5032151;28;20037;-71
2023/12/14 05:41:13;;;;;;;57.70;54.35;;;8.60;99.90;;;;;;5024973;28;20030;-72
2023/12/14 05:43:39;;;;;;;50.92;47.97;;;8.50;99.90;;;;;;5016340;28;20033;-72
2023/12/14 05:46:05;;;;;;;43.72;41.25;;;8.50;99.90;;;;;;5024612;28;20591;-71
2023/12/14 05:48:32;;;;;;;38.47;36.25;;;8.60;99.90;;;;;;5030377;28;20044;-71
2023/12/14 05:51:00;;;;;;;40.88;38.25;;;8.60;99.90;;;;;;5029466;28;20036;-71
2023/12/14 05:53:26;;;;;;;46.42;43.35;;;8.50;99.90;;;;;;5016960;28;20038;-71
2023/12/14 05:55:52;;;;;;;45.75;42.97;;;8.50;99.90;;;;;;5027767;28;20029;-71
2023/12/14 05:58:18;;;;;;;39.15;36.10;;;8.40;99.90;;;;;;5014977;28;20046;-71
2023/12/14 06:00:44;;;;;;;35.08;32.85;;;8.40;99.90;;;;;;5024391;28;20045;-71
2023/12/14 06:03:10;;;;;;;32.63;30.33;;;8.30;99.90;;;;;;5032472;28;20029;-71
2023/12/14 06:05:36;;;;;;;34.35;31.77;;;8.30;99.90;;;;;;5032618;28;20033;-66
2023/12/14 06:08:02;;;;;;;36.65;34.15;;;8.40;99.90;;;;;;5032402;28;20419;-67
2023/12/14 06:10:29;;;;;;;35.38;33.33;;;8.40;99.90;;;;;;5020558;28;21052;-66
2023/12/14 06:12:55;;;;;;;35.55;32.88;;;8.40;99.90;;;;;;5030433;28;20045;-66
2023/12/14 06:15:21;;;;;;;33.85;31.73;;;8.40;99.90;;;;;;5023646;28;23758;-66
2023/12/14 06:17:47;;;;;;;36.13;33.65;;;8.50;99.90;;;;;;5032714;28;20037;-66
2023/12/14 06:20:14;;;;;;;34.50;32.45;;;8.50;99.90;;;;;;5015795;28;20034;-66
2023/12/14 06:22:40;;;;;;;50.58;37.15;;;8.40;99.90;;;;;;5024939;28;20041;-66
2023/12/14 06:25:07;;;;;;;35.90;33.33;;;8.30;99.90;;;;;;5027654;28;20048;-66
2023/12/14 06:27:33;;;;;;;33.05;30.95;;;8.30;99.90;;;;;;5032175;28;20056;-66
2023/12/14 06:29:59;;;;;;;41.67;39.13;;;8.20;99.90;;;;;;5031184;28;20045;-66
2023/12/14 06:32:25;;;;;;;40.97;38.47;;;8.20;99.90;;;;;;5031374;28;20045;-66
2023/12/14 06:34:52;;;;;;;40.97;38.47;;;8.10;99.90;;;;;;5032298;28;20044;-66
2023/12/14 06:37:18;;;;;;;46.30;43.17;;;8.10;99.90;;;;;;5031253;28;20364;-66
2023/12/14 06:39:44;;;;;;;34.55;32.20;;;8.00;99.90;;;;;;5012632;28;20033;-66
2023/12/14 06:42:11;;;;;;;34.13;31.95;;;8.00;99.90;;;;;;5027879;28;20492;-66
2023/12/14 06:44:37;;;;;;;32.67;30.30;;;8.00;99.90;;;;;;5017957;28;20510;-66
2023/12/14 06:47:04;;;;;;;36.05;33.85;;;8.00;99.90;;;;;;5019568;28;20050;-66
2023/12/14 06:49:30;;;;;;;34.75;32.78;;;8.00;99.90;;;;;;5031990;28;20474;-66
2023/12/14 06:51:56;;;;;;;35.38;33.13;;;8.00;99.90;;;;;;5023335;28;20068;-66
2023/12/14 06:54:22;;;;;;;30.90;29.02;;;8.10;99.90;;;;;;5011241;28;20494;-66
2023/12/14 06:56:48;;;;;;;32.15;30.10;;;8.00;99.90;;;;;;5016812;28;20041;-66
2023/12/14 06:59:15;;;;;;;34.92;32.78;;;8.00;99.90;;;;;;5031736;28;20398;-66
2023/12/14 07:01:41;;;;;;;34.13;32.03;;;8.00;99.90;;;;;;5029758;28;20066;-66
2023/12/14 07:04:07;;;;;;;33.42;31.33;;;8.00;99.90;;;;;;5012583;28;20026;-66
2023/12/14 07:06:35;;;;;;;34.35;31.83;;;8.00;99.90;;;;;;5011314;28;20499;-66
2023/12/14 07:09:01;;;;;;;39.55;37.17;;;8.10;99.90;;;;;;5020763;28;20037;-73
2023/12/14 07:11:27;;;;;;;37.33;35.10;;;8.00;99.90;;;;;;5022927;28;20033;-73
2023/12/14 07:13:54;;;;;;;37.08;34.53;;;8.10;99.90;;;;;;5011949;28;20026;-73
2023/12/14 07:16:20;;;;;;;40.83;38.30;;;8.10;99.90;;;;;;5021419;28;20045;-73
2023/12/14 07:18:46;;;;;;;40.78;37.88;;;8.00;99.90;;;;;;5030832;28;20033;-73
2023/12/14 07:21:12;;;;;;;41.50;38.97;;;8.10;99.90;;;;;;5020987;28;20049;-73
2023/12/14 07:23:39;;;;;;;37.40;35.13;;;8.10;99.90;;;;;;5032000;28;20024;-73
2023/12/14 07:26:05;;;;;;;31.75;29.98;;;8.00;99.90;;;;;;5027075;28;20025;-73
2023/12/14 07:28:31;;;;;;;42.45;39.85;;;8.00;99.90;;;;;;5032195;28;20030;-73
2023/12/14 07:30:57;;;;;;;44.53;41.85;;;7.90;99.90;;;;;;5030804;28;20037;-72
2023/12/14 07:33:23;;;;;;;34.78;32.72;;;7.90;99.90;;;;;;5033221;28;20049;-73
2023/12/14 07:35:50;;;;;;;36.30;34.00;;;7.90;99.90;;;;;;5028659;28;20054;-71
2023/12/14 07:38:16;;;;;;;70.93;66.32;;;8.00;99.90;;;;;;5020135;28;20045;-72
2023/12/14 07:40:42;;;;;;;41.63;38.80;;;8.10;99.90;;;;;;5035745;28;20489;-69
2023/12/14 07:43:08;;;;;;;51.83;48.30;;;8.20;99.90;;;;;;5034598;28;20053;-70
2023/12/14 07:45:34;;;;;;;53.70;49.53;;;8.10;99.90;;;;;;5034164;28;20037;-70
2023/12/14 07:48:00;;;;;;;83.63;78.25;;;8.00;99.90;;;;;;5035556;28;20032;-71
2023/12/14 07:50:26;;;;;;;38.63;36.08;;;7.90;99.90;;;;;;5026191;28;20041;-70
2023/12/14 07:52:53;;;;;;;37.83;35.28;;;7.90;99.90;;;;;;5029648;28;20030;-70
2023/12/14 07:55:20;;;;;;;59.13;55.70;;;7.90;99.90;;;;;;5020576;28;20057;-67
2023/12/14 07:57:46;;;;;;;48.90;45.85;;;8.00;99.90;;;;;;5030115;28;20053;-67
2023/12/14 08:00:12;;;;;;;51.78;48.55;;;8.20;99.90;;;;;;5029975;28;20053;-66
2023/12/14 08:02:38;;;;;;;58.92;55.58;;;8.30;99.90;;;;;;5033229;28;20044;-69
2023/12/14 08:05:05;;;;;;;51.30;48.13;;;8.30;99.90;;;;;;5034892;28;20060;-70
2023/12/14 08:07:32;;;;;;;57.67;54.00;;;8.30;99.90;;;;;;5034087;28;20045;-69
2023/12/14 08:09:58;;;;;;;55.33;51.92;;;8.20;99.90;;;;;;5021419;28;20033;-69
2023/12/14 08:12:24;;;;;;;44.90;42.13;;;8.10;99.90;;;;;;5034013;28;20053;-76
2023/12/14 08:14:50;;;;;;;41.95;39.08;;;8.10;99.90;;;;;;5033845;28;20034;-76
2023/12/14 08:17:17;;;;;;;45.15;42.55;;;8.00;99.90;;;;;;5026227;28;20630;-76
2023/12/14 08:19:43;;;;;;;44.22;41.30;;;8.10;99.90;;;;;;5023882;28;20057;-77
2023/12/14 08:22:12;;;;;;;33.10;30.83;;;8.10;99.90;;;;;;5024187;28;20049;-74
2023/12/14 08:24:38;;;;;;;60.20;56.60;;;8.10;99.90;;;;;;5027155;28;20040;-76
2023/12/14 08:27:05;;;;;;;57.03;53.55;;;8.20;99.90;;;;;;5031805;28;20092;-74
2023/12/14 08:29:31;;;;;;;48.80;45.75;;;8.30;99.90;;;;;;5029534;28;20060;-73
2023/12/14 08:31:58;;;;;;;46.38;42.78;;;8.40;99.90;;;;;;5025387;28;20045;-74
2023/12/14 08:34:25;;;;;;;59.45;55.80;;;8.40;99.90;;;;;;5032906;28;20053;-73
2023/12/14 08:36:51;;;;;;;45.40;42.22;;;8.40;99.90;;;;;;5021483;28;20033;-73
2023/12/14 08:39:17;;;;;;;58.40;54.95;;;8.30;99.90;;;;;;5034284;28;20049;-74
2023/12/14 08:41:45;;;;;;;36.40;34.08;;;8.30;99.90;;;;;;5032782;28;20036;-73
2023/12/14 08:44:11;;;;;;;48.17;45.13;;;8.20;99.90;;;;;;5029845;28;20033;-72
2023/12/14 08:46:41;;;;;;;41.83;39.22;;;8.20;99.90;;;;;;5033537;28;20513;-72
2023/12/14 08:49:07;;;;;;;55.22;51.50;;;8.30;99.90;;;;;;5032045;28;20052;-73
2023/12/14 08:51:33;;;;;;;61.05;57.22;;;8.30;99.90;;;;;;5032714;28;20033;-73
2023/12/14 08:53:59;;;;;;;46.53;43.28;;;8.30;99.90;;;;;;5027800;28;20029;-73
2023/12/14 08:56:25;;;;;;;52.55;49.20;;;8.40;99.90;;;;;;5023936;28;20037;-73
2023/12/14 08:58:52;;;;;;;40.63;37.83;;;8.40;99.90;;;;;;5016844;28;20494;-73
2023/12/14 09:01:22;;;;;;;35.25;33.17;;;8.50;99.90;;;;;;5033036;28;20029;-73
2023/12/14 09:03:49;;;;;;;39.97;37.42;;;8.50;99.90;;;;;;5032661;28;20044;-73
2023/12/14 09:06:16;;;;;;;41.40;38.83;;;8.50;99.90;;;;;;5031772;28;20064;-73
2023/12/14 09:08:42;;;;;;;45.92;43.00;;;8.50;99.90;;;;;;5032761;28;20037;-73
2023/12/14 09:11:08;;;;;;;40.22;37.78;;;8.50;99.90;;;;;;5032875;28;20060;-73
2023/12/14 09:13:34;;;;;;;58.60;55.10;;;8.50;99.90;;;;;;5033739;28;20366;-73
2023/12/14 09:16:00;;;;;;;43.90;41.45;;;8.50;99.90;;;;;;5031772;28;20061;-73
2023/12/14 09:18:26;;;;;;;48.85;45.55;;;8.50;99.90;;;;;;5033773;28;20030;-74
2023/12/14 09:20:52;;;;;;;51.92;48.92;;;8.60;99.90;;;;;;5033054;28;20394;-73
2023/12/14 09:23:19;;;;;;;48.40;45.65;;;8.60;99.90;;;;;;5032814;28;20025;-74
2023/12/14 09:25:45;;;;;;;49.10;46.17;;;8.60;99.90;;;;;;5032755;28;20032;-73
2023/12/14 09:28:11;;;;;;;45.35;42.58;;;8.60;99.90;;;;;;5025757;28;20394;-73
2023/12/14 09:30:37;;;;;;;42.13;39.67;;;8.60;99.90;;;;;;5025647;28;20041;-73
2023/12/14 09:33:03;;;;;;;42.72;40.00;;;8.70;99.90;;;;;;5032272;28;20409;-73
2023/12/14 09:35:29;;;;;;;43.25;40.58;;;8.70;99.90;;;;;;5032463;28;20029;-70
2023/12/14 09:37:56;;;;;;;39.88;37.17;;;8.70;99.90;;;;;;5033216;28;20025;-69
2023/12/14 09:40:22;;;;;;;41.28;38.97;;;8.70;99.90;;;;;;5032828;28;20064;-70
2023/12/14 09:42:48;;;;;;;43.72;40.85;;;8.70;99.90;;;;;;5033249;28;20497;-70
2023/12/14 09:45:16;;;;;;;44.30;41.70;;;8.70;99.90;;;;;;5030805;28;20042;-70
2023/12/14 09:47:42;;;;;;;48.78;46.13;;;8.70;99.90;;;;;;5032981;28;20029;-70
2023/12/14 09:50:09;;;;;;;46.10;43.35;;;8.60;99.90;;;;;;5031340;28;20045;-70
2023/12/14 09:52:35;;;;;;;46.75;43.45;;;8.60;99.90;;;;;;5032992;28;20540;-70
2023/12/14 09:55:03;;;;;;;40.90;37.90;;;8.50;99.90;;;;;;5033180;28;20021;-70
2023/12/14 09:57:30;;;;;;;42.20;39.70;;;8.60;99.90;;;;;;5026708;28;20028;-70
2023/12/14 09:59:56;;;;;;;42.65;39.85;;;8.60;99.90;;;;;;5019296;28;20478;-71
2023/12/14 10:02:26;;;;;;;42.67;39.75;;;8.70;99.90;;;;;;5028707;28;20030;-70
2023/12/14 10:04:52;;;;;;;41.10;38.20;;;8.70;99.90;;;;;;5032051;28;20462;-70
2023/12/14 10:07:20;;;;;;;40.67;37.67;;;8.70;99.90;;;;;;5031130;28;20030;-70
2023/12/14 10:09:46;;;;;;;40.95;38.25;;;8.70;99.90;;;;;;5024835;28;20021;-70
2023/12/14 10:12:12;;;;;;;40.15;37.65;;;8.70;99.90;;;;;;5030555;28;20514;-70
2023/12/14 10:14:39;;;;;;;39.72;37.28;;;8.70;99.90;;;;;;5031583;28;20036;-70
2023/12/14 10:17:16;;;;;;;44.25;41.40;;;8.70;99.90;;;;;;5031288;28;20040;-70
2023/12/14 10:19:43;;;;;;;47.67;44.30;;;8.70;99.90;;;;;;5030434;28;20482;-70
2023/12/14 10:22:10;;;;;;;46.10;42.95;;;8.70;99.90;;;;;;5027548;28;20037;-70
2023/12/14 10:24:36;;;;;;;46.75;43.92;;;8.80;99.90;;;;;;5032337;28;20033;-69
2023/12/14 10:27:08;;;;;;;46.75;43.33;;;8.80;99.90;;;;;;5030667;28;20052;-70
2023/12/14 10:29:36;;;;;;;49.70;46.50;;;8.80;99.90;;;;;;5030810;28;20045;-69
2023/12/14 10:32:06;;;;;;;56.78;52.80;;;8.80;99.90;;;;;;5028205;28;20033;-69
2023/12/14 10:34:33;;;;;;;44.38;41.15;;;8.90;99.90;;;;;;5027901;28;20041;-70
2023/12/14 10:36:59;;;;;;;58.20;53.85;;;8.90;99.90;;;;;;5029251;28;20025;-70
2023/12/14 10:39:25;;;;;;;63.10;58.83;;;8.90;99.90;;;;;;5027373;28;20030;-70
2023/12/14 10:41:54;;;;;;;58.95;55.53;;;8.90;99.90;;;;;;5024269;28;20405;-70
2023/12/14 10:44:21;;;;;;;52.83;49.72;;;8.90;99.90;;;;;;5031316;28;20049;-70
2023/12/14 10:46:48;;;;;;;41.63;39.03;;;9.00;99.90;;;;;;5029541;28;20045;-71
2023/12/14 10:49:14;;;;;;;45.55;42.60;;;9.00;99.90;;;;;;5026567;28;20025;-70
2023/12/14 10:51:42;;;;;;;44.17;41.60;;;9.10;99.90;;;;;;5019932;28;20037;-70
2023/12/14 10:54:08;;;;;;;50.92;47.45;;;9.00;99.90;;;;;;5024313;28;20037;-70
2023/12/14 10:56:34;;;;;;;47.40;44.45;;;9.00;99.90;;;;;;5029179;28;20037;-70
2023/12/14 10:59:02;;;;;;;47.28;44.63;;;9.00;99.90;;;;;;5029485;28;20045;-70
2023/12/14 11:01:29;;;;;;;49.22;46.30;;;8.90;99.90;;;;;;5017355;28;20495;-70
2023/12/14 11:03:58;;;;;;;48.22;45.13;;;8.90;99.90;;;;;;5009896;28;20429;-70
2023/12/14 11:06:36;;;;;;;46.08;43.30;;;9.00;99.90;;;;;;5029440;28;20036;-70
2023/12/14 11:09:06;;;;;;;50.75;47.75;;;8.90;99.90;;;;;;5018085;28;20497;-70
2023/12/14 11:11:57;;;;;;;50.97;47.88;;;8.90;99.90;;;;;;5024551;28;20044;-70
2023/12/14 11:14:23;;;;;;;47.03;44.00;;;8.90;99.90;;;;;;5027653;28;20033;-70
2023/12/14 11:16:50;;;;;;;47.22;44.28;;;8.90;99.90;;;;;;5026026;28;20084;-70
2023/12/14 11:19:23;;;;;;;56.75;53.15;;;9.00;99.90;;;;;;5026523;28;20046;-70
2023/12/14 11:22:17;;;;;;;50.42;46.92;;;9.00;99.90;;;;;;5027855;28;20068;-70
2023/12/14 11:24:45;;;;;;;44.15;41.15;;;9.00;99.90;;;;;;5031270;28;20044;-70
2023/12/14 11:27:11;;;;;;;44.38;41.53;;;9.00;99.90;;;;;;5026554;28;20030;-70
2023/12/14 11:29:38;;;;;;;40.97;38.55;;;9.00;99.90;;;;;;5030404;28;20034;-70
2023/12/14 11:32:06;;;;;;;42.13;39.67;;;9.10;99.90;;;;;;5029076;28;20037;-69
2023/12/14 11:34:32;;;;;;;44.28;41.28;;;9.10;99.90;;;;;;5028946;28;20410;-69
2023/12/14 11:36:58;;;;;;;44.95;41.88;;;9.10;99.90;;;;;;5027332;28;20029;-70
2023/12/14 11:39:24;;;;;;;45.33;42.40;;;9.10;99.90;;;;;;5030709;28;20117;-69
2023/12/14 11:42:04;;;;;;;47.40;44.13;;;9.20;99.90;;;;;;5028839;28;20053;-70
2023/12/14 11:44:32;;;;;;;48.80;45.83;;;9.30;99.90;;;;;;5029688;28;20037;-70
2023/12/14 11:46:58;;;;;;;46.33;43.50;;;9.30;99.90;;;;;;5027679;28;20117;-69
2023/12/14 11:49:26;;;;;;;44.72;41.92;;;9.30;99.90;;;;;;5029899;28;20034;-69
2023/12/14 11:51:53;;;;;;;51.28;48.35;;;9.40;99.90;;;;;;5025196;28;20045;-70
2023/12/14 11:54:20;;;;;;;63.38;59.78;;;9.40;99.90;;;;;;5028828;28;20045;-69
2023/12/14 11:56:49;;;;;;;61.95;58.35;;;9.50;99.90;;;;;;5028673;28;22090;-72
2023/12/14 11:59:17;;;;;;;62.42;58.65;;;9.50;99.90;;;;;;5029954;28;20060;-72
2023/12/14 12:02:00;;;;;;;115.43;109.18;;;9.50;99.90;;;;;;5029358;28;20406;-72
2023/12/14 12:04:26;;;;;;;117.40;111.28;;;9.60;99.90;;;;;;5029850;28;20050;-72
2023/12/14 12:07:00;;;;;;;91.57;86.47;;;9.60;99.90;;;;;;5028538;28;20490;-72
2023/12/14 12:09:51;;;;;;;99.95;94.47;;;9.60;99.90;;;;;;5015492;28;20069;-72
2023/12/14 12:12:17;;;;;;;103.45;98.00;;;9.60;99.90;;;;;;5030806;28;20024;-72
2023/12/14 12:14:43;;;;;;;90.70;85.82;;;9.70;99.90;;;;;;5034486;28;20045;-71
2023/12/14 12:17:10;;;;;;;92.38;87.05;;;9.80;99.90;;;;;;5032926;28;20033;-70
2023/12/14 12:19:36;;;;;;;120.85;114.30;;;9.80;99.90;;;;;;5032578;28;20041;-72
2023/12/14 12:22:03;;;;;;;124.10;117.13;;;9.80;99.90;;;;;;5017759;28;20057;-69
2023/12/14 12:24:29;;;;;;;128.05;120.47;;;9.80;99.90;;;;;;5014026;28;20029;-72
2023/12/14 12:26:55;;;;;;;68.65;64.78;;;9.90;99.90;;;;;;5031147;28;20034;-72
2023/12/14 12:29:22;;;;;;;70.88;66.95;;;10.10;99.90;;;;;;5034580;28;20049;-70
2023/12/14 12:31:48;;;;;;;71.47;67.35;;;10.10;99.90;;;;;;5031313;28;20589;-69